sensor_id;sensor_type;location;lat;lon;timestamp;pressure;altitude;pressure_sealevel;temperature;humidity
41062;BME280;26812;42.662;23.352;2023-03-05T00:02:15;94445.22;;;7.98;68.75
41062;BME280;26812;42.662;23.352;2023-03-05T00:04:40;94457.50;;;8.48;66.64
41062;BME280;26812;42.662;23.352;2023-03-05T00:07:06;94433.66;;;8.37;65.90
41062;BME280;26812;42.662;23.352;2023-03-05T00:09:33;94460.72;;;8.19;67.05
41062;BME280;26812;42.662;23.352;2023-03-05T00:11:59;94444.34;;;8.29;67.26
41062;BME280;26812;42.662;23.352;2023-03-05T00:14:24;94459.66;;;8.28;67.09
41062;BME280;26812;42.662;23.352;2023-03-05T00:16:50;94418.00;;;8.48;65.18
41062;BME280;26812;42.662;23.352;2023-03-05T00:19:15;94436.47;;;8.32;65.11
41062;BME280;26812;42.662;23.352;2023-03-05T00:21:41;94408.72;;;8.63;64.13
41062;BME280;26812;42.662;23.352;2023-03-05T00:24:13;94441.59;;;8.03;66.45
41062;BME280;26812;42.662;23.352;2023-03-05T00:26:39;94417.31;;;8.08;67.09
41062;BME280;26812;42.662;23.352;2023-03-05T00:29:06;94458.38;;;7.77;68.34
41062;BME280;26812;42.662;23.352;2023-03-05T00:31:34;94447.44;;;7.96;66.27
41062;BME280;26812;42.662;23.352;2023-03-05T00:34:03;94447.78;;;8.12;66.79
41062;BME280;26812;42.662;23.352;2023-03-05T00:36:29;94435.94;;;8.22;66.12
41062;BME280;26812;42.662;23.352;2023-03-05T00:38:55;94433.19;;;7.96;66.37
41062;BME280;26812;42.662;23.352;2023-03-05T00:41:20;94433.97;;;8.36;65.81
41062;BME280;26812;42.662;23.352;2023-03-05T00:43:46;94420.38;;;8.41;64.35
41062;BME280;26812;42.662;23.352;2023-03-05T00:46:12;94422.75;;;7.77;67.09
41062;BME280;26812;42.662;23.352;2023-03-05T00:48:37;94424.16;;;7.74;66.92
41062;BME280;26812;42.662;23.352;2023-03-05T00:51:03;94438.22;;;7.80;66.68
41062;BME280;26812;42.662;23.352;2023-03-05T00:53:29;94425.34;;;8.08;65.01
41062;BME280;26812;42.662;23.352;2023-03-05T00:55:54;94401.84;;;8.14;65.34
41062;BME280;26812;42.662;23.352;2023-03-05T00:58:20;94414.16;;;8.15;65.28
41062;BME280;26812;42.662;23.352;2023-03-05T01:00:45;94418.25;;;8.12;64.56
41062;BME280;26812;42.662;23.352;2023-03-05T01:03:15;94405.47;;;8.09;64.37
41062;BME280;26812;42.662;23.352;2023-03-05T01:05:40;94411.16;;;8.25;63.89
41062;BME280;26812;42.662;23.352;2023-03-05T01:08:05;94404.19;;;7.98;64.83
41062;BME280;26812;42.662;23.352;2023-03-05T01:10:37;94401.44;;;7.81;64.86
41062;BME280;26812;42.662;23.352;2023-03-05T01:13:03;94383.69;;;8.10;64.13
41062;BME280;26812;42.662;23.352;2023-03-05T01:15:28;94410.31;;;7.41;65.24
41062;BME280;26812;42.662;23.352;2023-03-05T01:17:54;94389.69;;;7.59;66.00
41062;BME280;26812;42.662;23.352;2023-03-05T01:20:20;94407.28;;;7.74;65.35
41062;BME280;26812;42.662;23.352;2023-03-05T01:22:46;94396.25;;;7.75;63.84
41062;BME280;26812;42.662;23.352;2023-03-05T01:25:13;94399.16;;;8.14;63.45
41062;BME280;26812;42.662;23.352;2023-03-05T01:27:39;94389.47;;;7.95;63.16
41062;BME280;26812;42.662;23.352;2023-03-05T01:30:05;94379.13;;;8.20;63.09
41062;BME280;26812;42.662;23.352;2023-03-05T01:32:35;94392.44;;;7.76;63.83
41062;BME280;26812;42.662;23.352;2023-03-05T01:35:02;94390.16;;;8.01;62.60
41062;BME280;26812;42.662;23.352;2023-03-05T01:37:28;94392.47;;;7.94;62.44
41062;BME280;26812;42.662;23.352;2023-03-05T01:39:53;94397.16;;;8.45;61.19
41062;BME280;26812;42.662;23.352;2023-03-05T01:42:19;94381.06;;;8.36;61.17
41062;BME280;26812;42.662;23.352;2023-03-05T01:45:12;94397.50;;;7.78;62.62
41062;BME280;26812;42.662;23.352;2023-03-05T01:47:38;94401.44;;;7.72;61.98
41062;BME280;26812;42.662;23.352;2023-03-05T01:50:06;94365.97;;;7.84;61.65
41062;BME280;26812;42.662;23.352;2023-03-05T01:52:35;94385.00;;;8.30;60.38
41062;BME280;26812;42.662;23.352;2023-03-05T01:55:05;94370.31;;;8.28;60.22
41062;BME280;26812;42.662;23.352;2023-03-05T01:58:02;94400.25;;;8.13;61.02
41062;BME280;26812;42.662;23.352;2023-03-05T02:00:49;94383.56;;;8.33;60.32
41062;BME280;26812;42.662;23.352;2023-03-05T02:03:17;94388.66;;;8.43;59.14
41062;BME280;26812;42.662;23.352;2023-03-05T02:05:43;94386.53;;;8.05;60.42
41062;BME280;26812;42.662;23.352;2023-03-05T02:08:17;94380.94;;;7.76;61.56
41062;BME280;26812;42.662;23.352;2023-03-05T02:10:43;94397.03;;;7.85;61.25
41062;BME280;26812;42.662;23.352;2023-03-05T02:13:13;94393.16;;;8.08;60.90
41062;BME280;26812;42.662;23.352;2023-03-05T02:15:40;94351.59;;;7.71;60.49
41062;BME280;26812;42.662;23.352;2023-03-05T02:18:07;94401.44;;;7.81;60.93
41062;BME280;26812;42.662;23.352;2023-03-05T02:21:08;94394.75;;;8.18;59.68
41062;BME280;26812;42.662;23.352;2023-03-05T02:23:35;94369.81;;;8.17;58.86
41062;BME280;26812;42.662;23.352;2023-03-05T02:26:07;94398.28;;;7.78;60.73
41062;BME280;26812;42.662;23.352;2023-03-05T02:28:37;94392.75;;;7.75;60.58
41062;BME280;26812;42.662;23.352;2023-03-05T02:31:15;94397.91;;;7.63;61.58
41062;BME280;26812;42.662;23.352;2023-03-05T02:33:41;94388.94;;;8.33;59.91
41062;BME280;26812;42.662;23.352;2023-03-05T02:36:06;94383.00;;;7.79;60.40
41062;BME280;26812;42.662;23.352;2023-03-05T02:38:32;94390.78;;;8.15;59.31
41062;BME280;26812;42.662;23.352;2023-03-05T02:40:58;94401.63;;;7.84;59.94
41062;BME280;26812;42.662;23.352;2023-03-05T02:43:24;94385.28;;;7.63;61.16
41062;BME280;26812;42.662;23.352;2023-03-05T02:45:49;94386.13;;;7.33;61.86
41062;BME280;26812;42.662;23.352;2023-03-05T02:48:15;94360.09;;;7.25;61.63
41062;BME280;26812;42.662;23.352;2023-03-05T02:50:40;94361.41;;;7.93;60.62
41062;BME280;26812;42.662;23.352;2023-03-05T02:53:07;94406.41;;;8.13;60.17
41062;BME280;26812;42.662;23.352;2023-03-05T02:55:32;94408.78;;;8.15;60.12
41062;BME280;26812;42.662;23.352;2023-03-05T02:57:58;94376.75;;;7.53;60.36
41062;BME280;26812;42.662;23.352;2023-03-05T03:00:23;94369.25;;;7.72;60.67
41062;BME280;26812;42.662;23.352;2023-03-05T03:02:50;94398.44;;;7.73;61.71
41062;BME280;26812;42.662;23.352;2023-03-05T03:05:16;94386.53;;;7.18;64.38
41062;BME280;26812;42.662;23.352;2023-03-05T03:07:42;94354.66;;;7.07;64.08
41062;BME280;26812;42.662;23.352;2023-03-05T03:10:08;94390.72;;;7.81;61.62
41062;BME280;26812;42.662;23.352;2023-03-05T03:12:43;94413.66;;;7.56;63.01
41062;BME280;26812;42.662;23.352;2023-03-05T03:15:11;94414.50;;;7.34;63.46
41062;BME280;26812;42.662;23.352;2023-03-05T03:17:37;94377.44;;;6.96;64.98
41062;BME280;26812;42.662;23.352;2023-03-05T03:20:04;94402.78;;;7.52;63.39
41062;BME280;26812;42.662;23.352;2023-03-05T03:22:30;94390.66;;;7.63;62.55
41062;BME280;26812;42.662;23.352;2023-03-05T03:24:56;94395.53;;;7.22;63.84
41062;BME280;26812;42.662;23.352;2023-03-05T03:27:22;94395.16;;;7.37;63.07
41062;BME280;26812;42.662;23.352;2023-03-05T03:29:47;94403.00;;;7.33;62.92
41062;BME280;26812;42.662;23.352;2023-03-05T03:32:13;94396.56;;;6.81;64.60
41062;BME280;26812;42.662;23.352;2023-03-05T03:34:38;94365.28;;;6.68;64.21
41062;BME280;26812;42.662;23.352;2023-03-05T03:37:04;94385.59;;;6.91;64.03
41062;BME280;26812;42.662;23.352;2023-03-05T03:39:30;94389.25;;;6.95;64.85
41062;BME280;26812;42.662;23.352;2023-03-05T03:41:55;94397.78;;;6.75;64.86
41062;BME280;26812;42.662;23.352;2023-03-05T03:44:21;94405.69;;;6.80;64.45
41062;BME280;26812;42.662;23.352;2023-03-05T03:46:48;94407.94;;;6.64;64.40
41062;BME280;26812;42.662;23.352;2023-03-05T03:49:19;94409.22;;;6.67;65.14
41062;BME280;26812;42.662;23.352;2023-03-05T03:51:45;94397.50;;;6.76;65.35
41062;BME280;26812;42.662;23.352;2023-03-05T03:54:12;94379.09;;;6.39;65.37
41062;BME280;26812;42.662;23.352;2023-03-05T03:56:38;94372.88;;;6.97;63.66
41062;BME280;26812;42.662;23.352;2023-03-05T03:59:03;94364.31;;;6.19;65.57
41062;BME280;26812;42.662;23.352;2023-03-05T04:01:29;94407.28;;;6.81;64.92
41062;BME280;26812;42.662;23.352;2023-03-05T04:03:54;94419.16;;;7.20;62.90
41062;BME280;26812;42.662;23.352;2023-03-05T04:06:20;94364.44;;;6.81;62.94
41062;BME280;26812;42.662;23.352;2023-03-05T04:08:45;94404.53;;;7.26;62.57
41062;BME280;26812;42.662;23.352;2023-03-05T04:11:11;94409.53;;;6.43;65.00
41062;BME280;26812;42.662;23.352;2023-03-05T04:13:36;94396.97;;;6.30;65.21
41062;BME280;26812;42.662;23.352;2023-03-05T04:16:02;94418.59;;;6.19;66.45
41062;BME280;26812;42.662;23.352;2023-03-05T04:18:27;94411.44;;;6.29;65.47
41062;BME280;26812;42.662;23.352;2023-03-05T04:20:53;94411.91;;;6.31;66.71
41062;BME280;26812;42.662;23.352;2023-03-05T04:23:18;94396.81;;;6.48;65.33
41062;BME280;26812;42.662;23.352;2023-03-05T04:25:44;94393.81;;;6.95;63.89
41062;BME280;26812;42.662;23.352;2023-03-05T04:28:10;94411.44;;;6.73;65.00
41062;BME280;26812;42.662;23.352;2023-03-05T04:30:36;94365.41;;;6.40;63.51
41062;BME280;26812;42.662;23.352;2023-03-05T04:33:01;94387.97;;;6.70;63.07
41062;BME280;26812;42.662;23.352;2023-03-05T04:35:27;94373.34;;;7.30;61.22
41062;BME280;26812;42.662;23.352;2023-03-05T04:37:52;94388.59;;;6.45;63.05
41062;BME280;26812;42.662;23.352;2023-03-05T04:40:17;94388.13;;;6.29;64.20
41062;BME280;26812;42.662;23.352;2023-03-05T04:42:43;94365.34;;;6.32;63.73
41062;BME280;26812;42.662;23.352;2023-03-05T04:45:09;94398.22;;;6.46;64.19
41062;BME280;26812;42.662;23.352;2023-03-05T04:47:35;94405.34;;;7.04;62.65
41062;BME280;26812;42.662;23.352;2023-03-05T04:50:01;94386.78;;;6.18;64.98
41062;BME280;26812;42.662;23.352;2023-03-05T04:52:28;94383.56;;;6.30;64.53
41062;BME280;26812;42.662;23.352;2023-03-05T04:54:53;94384.41;;;6.16;64.96
41062;BME280;26812;42.662;23.352;2023-03-05T04:57:19;94373.06;;;6.33;64.40
41062;BME280;26812;42.662;23.352;2023-03-05T04:59:44;94361.28;;;5.71;65.01
41062;BME280;26812;42.662;23.352;2023-03-05T05:02:09;94370.41;;;5.83;66.14
41062;BME280;26812;42.662;23.352;2023-03-05T05:04:35;94374.44;;;5.81;65.86
41062;BME280;26812;42.662;23.352;2023-03-05T05:07:00;94403.91;;;6.53;63.69
41062;BME280;26812;42.662;23.352;2023-03-05T05:09:26;94379.88;;;6.39;64.62
41062;BME280;26812;42.662;23.352;2023-03-05T05:11:52;94393.16;;;6.44;64.17
41062;BME280;26812;42.662;23.352;2023-03-05T05:14:17;94399.19;;;6.50;64.47
41062;BME280;26812;42.662;23.352;2023-03-05T05:16:43;94386.13;;;5.85;64.98
41062;BME280;26812;42.662;23.352;2023-03-05T05:19:08;94402.84;;;6.18;64.68
41062;BME280;26812;42.662;23.352;2023-03-05T05:21:34;94388.19;;;6.38;63.91
41062;BME280;26812;42.662;23.352;2023-03-05T05:23:59;94377.31;;;5.84;64.03
41062;BME280;26812;42.662;23.352;2023-03-05T05:26:25;94415.44;;;6.04;64.90
41062;BME280;26812;42.662;23.352;2023-03-05T05:28:51;94393.13;;;6.22;63.21
41062;BME280;26812;42.662;23.352;2023-03-05T05:31:16;94368.69;;;6.15;62.96
41062;BME280;26812;42.662;23.352;2023-03-05T05:33:42;94393.19;;;6.31;62.45
41062;BME280;26812;42.662;23.352;2023-03-05T05:36:10;94414.47;;;6.36;63.63
41062;BME280;26812;42.662;23.352;2023-03-05T05:38:36;94400.75;;;6.51;61.90
41062;BME280;26812;42.662;23.352;2023-03-05T05:41:07;94398.19;;;6.68;61.48
41062;BME280;26812;42.662;23.352;2023-03-05T05:43:33;94414.88;;;6.88;61.07
41062;BME280;26812;42.662;23.352;2023-03-05T05:46:00;94416.75;;;7.09;60.64
41062;BME280;26812;42.662;23.352;2023-03-05T05:48:30;94417.97;;;6.59;61.06
41062;BME280;26812;42.662;23.352;2023-03-05T05:50:57;94397.28;;;6.50;60.32
41062;BME280;26812;42.662;23.352;2023-03-05T05:53:23;94404.72;;;6.76;60.85
41062;BME280;26812;42.662;23.352;2023-03-05T05:55:49;94385.81;;;6.50;60.68
41062;BME280;26812;42.662;23.352;2023-03-05T05:58:14;94426.81;;;6.81;59.85
41062;BME280;26812;42.662;23.352;2023-03-05T06:00:40;94416.69;;;6.56;60.75
41062;BME280;26812;42.662;23.352;2023-03-05T06:03:06;94415.97;;;6.28;61.08
41062;BME280;26812;42.662;23.352;2023-03-05T06:05:32;94412.69;;;6.67;59.76
41062;BME280;26812;42.662;23.352;2023-03-05T06:07:58;94415.84;;;7.14;58.54
41062;BME280;26812;42.662;23.352;2023-03-05T06:10:23;94415.63;;;6.79;58.26
41062;BME280;26812;42.662;23.352;2023-03-05T06:12:48;94432.97;;;6.82;58.84
41062;BME280;26812;42.662;23.352;2023-03-05T06:15:14;94426.50;;;6.61;58.97
41062;BME280;26812;42.662;23.352;2023-03-05T06:17:39;94427.28;;;6.83;58.70
41062;BME280;26812;42.662;23.352;2023-03-05T06:20:05;94431.34;;;7.26;56.96
41062;BME280;26812;42.662;23.352;2023-03-05T06:22:35;94436.81;;;7.21;56.79
41062;BME280;26812;42.662;23.352;2023-03-05T06:25:01;94424.84;;;7.49;55.17
41062;BME280;26812;42.662;23.352;2023-03-05T06:27:27;94421.88;;;7.99;54.51
41062;BME280;26812;42.662;23.352;2023-03-05T06:29:53;94443.25;;;7.42;54.91
41062;BME280;26812;42.662;23.352;2023-03-05T06:32:19;94417.69;;;7.36;55.29
41062;BME280;26812;42.662;23.352;2023-03-05T06:34:44;94453.03;;;7.15;55.73
41062;BME280;26812;42.662;23.352;2023-03-05T06:37:10;94438.13;;;7.32;56.16
41062;BME280;26812;42.662;23.352;2023-03-05T06:39:35;94424.53;;;6.97;55.06
41062;BME280;26812;42.662;23.352;2023-03-05T06:42:01;94443.00;;;7.30;54.28
41062;BME280;26812;42.662;23.352;2023-03-05T06:44:26;94446.66;;;7.34;55.37
41062;BME280;26812;42.662;23.352;2023-03-05T06:46:52;94448.69;;;7.99;53.53
41062;BME280;26812;42.662;23.352;2023-03-05T06:49:17;94450.69;;;8.42;52.29
41062;BME280;26812;42.662;23.352;2023-03-05T06:51:42;94434.25;;;7.77;52.07
41062;BME280;26812;42.662;23.352;2023-03-05T06:54:10;94436.41;;;8.06;51.87
41062;BME280;26812;42.662;23.352;2023-03-05T06:56:38;94451.84;;;8.75;51.06
41062;BME280;26812;42.662;23.352;2023-03-05T06:59:04;94443.00;;;8.66;50.16
41062;BME280;26812;42.662;23.352;2023-03-05T07:01:29;94415.66;;;8.64;48.83
41062;BME280;26812;42.662;23.352;2023-03-05T07:03:55;94436.31;;;9.07;48.08
41062;BME280;26812;42.662;23.352;2023-03-05T07:06:23;94417.47;;;8.20;48.67
41062;BME280;26812;42.662;23.352;2023-03-05T07:08:49;94425.94;;;8.70;48.83
41062;BME280;26812;42.662;23.352;2023-03-05T07:11:19;94463.53;;;9.69;47.09
41062;BME280;26812;42.662;23.352;2023-03-05T07:13:45;94443.91;;;10.15;45.87
41062;BME280;26812;42.662;23.352;2023-03-05T07:16:16;94453.78;;;10.32;45.53
41062;BME280;26812;42.662;23.352;2023-03-05T07:18:42;94431.69;;;10.18;44.70
41062;BME280;26812;42.662;23.352;2023-03-05T07:21:08;94421.56;;;9.85;45.17
41062;BME280;26812;42.662;23.352;2023-03-05T07:23:34;94431.72;;;9.71;45.93
41062;BME280;26812;42.662;23.352;2023-03-05T07:26:06;94450.97;;;9.35;45.92
41062;BME280;26812;42.662;23.352;2023-03-05T07:28:32;94454.44;;;9.44;47.07
41062;BME280;26812;42.662;23.352;2023-03-05T07:31:01;94451.81;;;10.20;44.44
41062;BME280;26812;42.662;23.352;2023-03-05T07:33:26;94431.44;;;10.61;43.44
41062;BME280;26812;42.662;23.352;2023-03-05T07:35:52;94434.00;;;10.57;44.32
41062;BME280;26812;42.662;23.352;2023-03-05T07:38:18;94458.28;;;10.19;44.31
41062;BME280;26812;42.662;23.352;2023-03-05T07:40:43;94454.78;;;10.27;44.53
41062;BME280;26812;42.662;23.352;2023-03-05T07:43:09;94412.72;;;10.14;44.87
41062;BME280;26812;42.662;23.352;2023-03-05T07:45:38;94437.53;;;10.49;44.42
41062;BME280;26812;42.662;23.352;2023-03-05T07:48:04;94466.78;;;9.37;47.28
41062;BME280;26812;42.662;23.352;2023-03-05T07:50:29;94436.00;;;9.72;46.48
41062;BME280;26812;42.662;23.352;2023-03-05T07:52:57;94425.72;;;10.04;46.00
41062;BME280;26812;42.662;23.352;2023-03-05T07:55:22;94440.94;;;10.38;45.27
41062;BME280;26812;42.662;23.352;2023-03-05T07:57:47;94427.50;;;9.61;45.85
41062;BME280;26812;42.662;23.352;2023-03-05T08:00:13;94457.28;;;9.56;47.45
41062;BME280;26812;42.662;23.352;2023-03-05T08:02:39;94466.63;;;9.42;47.52
41062;BME280;26812;42.662;23.352;2023-03-05T08:05:05;94445.00;;;10.23;45.96
41062;BME280;26812;42.662;23.352;2023-03-05T08:07:30;94444.06;;;9.08;48.65
41062;BME280;26812;42.662;23.352;2023-03-05T08:09:55;94425.13;;;8.35;49.71
41062;BME280;26812;42.662;23.352;2023-03-05T08:12:21;94424.03;;;8.62;49.75
41062;BME280;26812;42.662;23.352;2023-03-05T08:14:47;94439.03;;;8.89;49.54
41062;BME280;26812;42.662;23.352;2023-03-05T08:17:12;94454.97;;;9.20;48.78
41062;BME280;26812;42.662;23.352;2023-03-05T08:19:38;94450.56;;;9.80;48.76
41062;BME280;26812;42.662;23.352;2023-03-05T08:22:04;94462.94;;;10.10;48.02
41062;BME280;26812;42.662;23.352;2023-03-05T08:24:29;94450.69;;;9.28;49.80
41062;BME280;26812;42.662;23.352;2023-03-05T08:26:56;94460.28;;;9.46;50.37
41062;BME280;26812;42.662;23.352;2023-03-05T08:29:22;94466.97;;;8.54;51.56
41062;BME280;26812;42.662;23.352;2023-03-05T08:31:47;94438.56;;;8.61;51.35
41062;BME280;26812;42.662;23.352;2023-03-05T08:34:14;94427.34;;;8.85;51.45
41062;BME280;26812;42.662;23.352;2023-03-05T08:36:39;94436.97;;;8.34;51.99
41062;BME280;26812;42.662;23.352;2023-03-05T08:39:11;94416.13;;;8.49;51.11
41062;BME280;26812;42.662;23.352;2023-03-05T08:41:37;94438.47;;;9.39;50.24
41062;BME280;26812;42.662;23.352;2023-03-05T08:44:03;94441.63;;;9.41;49.87
41062;BME280;26812;42.662;23.352;2023-03-05T08:46:28;94454.81;;;9.08;50.85
41062;BME280;26812;42.662;23.352;2023-03-05T08:48:54;94439.00;;;9.15;50.30
41062;BME280;26812;42.662;23.352;2023-03-05T08:51:22;94435.25;;;8.99;50.69
41062;BME280;26812;42.662;23.352;2023-03-05T08:53:50;94448.00;;;9.28;50.95
41062;BME280;26812;42.662;23.352;2023-03-05T08:56:16;94439.50;;;8.74;51.56
41062;BME280;26812;42.662;23.352;2023-03-05T08:58:43;94420.00;;;9.76;49.31
41062;BME280;26812;42.662;23.352;2023-03-05T09:01:10;94422.91;;;10.00;47.72
41062;BME280;26812;42.662;23.352;2023-03-05T09:03:35;94413.41;;;9.64;47.50
41062;BME280;26812;42.662;23.352;2023-03-05T09:06:04;94424.91;;;9.82;47.44
41062;BME280;26812;42.662;23.352;2023-03-05T09:08:30;94410.34;;;10.13;47.35
41062;BME280;26812;42.662;23.352;2023-03-05T09:10:55;94404.09;;;10.71;44.77
41062;BME280;26812;42.662;23.352;2023-03-05T09:13:21;94416.97;;;11.07;44.09
41062;BME280;26812;42.662;23.352;2023-03-05T09:15:56;94403.59;;;10.78;45.29
41062;BME280;26812;42.662;23.352;2023-03-05T09:18:22;94422.34;;;11.07;43.91
41062;BME280;26812;42.662;23.352;2023-03-05T09:20:47;94418.00;;;10.94;42.58
41062;BME280;26812;42.662;23.352;2023-03-05T09:23:13;94384.22;;;10.43;43.78
41062;BME280;26812;42.662;23.352;2023-03-05T09:25:41;94419.25;;;10.97;43.14
41062;BME280;26812;42.662;23.352;2023-03-05T09:28:07;94412.69;;;10.85;43.56
41062;BME280;26812;42.662;23.352;2023-03-05T09:30:33;94392.00;;;10.56;43.80
41062;BME280;26812;42.662;23.352;2023-03-05T09:33:02;94380.25;;;11.15;41.11
41062;BME280;26812;42.662;23.352;2023-03-05T09:35:28;94407.81;;;10.37;43.18
41062;BME280;26812;42.662;23.352;2023-03-05T09:37:54;94391.59;;;10.87;42.11
41062;BME280;26812;42.662;23.352;2023-03-05T09:40:20;94406.88;;;10.42;42.27
41062;BME280;26812;42.662;23.352;2023-03-05T09:43:09;94399.44;;;11.13;41.58
41062;BME280;26812;42.662;23.352;2023-03-05T09:51:04;94391.44;;;11.38;39.78
41062;BME280;26812;42.662;23.352;2023-03-05T09:53:48;94394.94;;;11.63;40.32
41062;BME280;26812;42.662;23.352;2023-03-05T09:56:21;94381.56;;;11.42;39.06
41062;BME280;26812;42.662;23.352;2023-03-05T09:58:51;94358.75;;;11.76;38.51
41062;BME280;26812;42.662;23.352;2023-03-05T10:01:22;94382.13;;;11.47;39.51
41062;BME280;26812;42.662;23.352;2023-03-05T10:06:46;94374.78;;;10.91;38.81
41062;BME280;26812;42.662;23.352;2023-03-05T10:12:18;94351.63;;;12.44;37.22
41062;BME280;26812;42.662;23.352;2023-03-05T10:14:45;94347.91;;;12.89;35.42
41062;BME280;26812;42.662;23.352;2023-03-05T10:17:45;94357.81;;;12.57;35.79
41062;BME280;26812;42.662;23.352;2023-03-05T10:20:27;94354.72;;;13.15;35.49
41062;BME280;26812;42.662;23.352;2023-03-05T10:26:06;94347.63;;;12.94;36.09
41062;BME280;26812;42.662;23.352;2023-03-05T10:34:24;94307.28;;;16.79;31.17
41062;BME280;26812;42.662;23.352;2023-03-05T10:45:11;94288.22;;;14.82;31.77
41062;BME280;26812;42.662;23.352;2023-03-05T10:48:15;94300.75;;;16.54;29.88
41062;BME280;26812;42.662;23.352;2023-03-05T10:50:47;94292.19;;;16.25;28.47
41062;BME280;26812;42.662;23.352;2023-03-05T10:55:49;94297.84;;;14.41;31.68
41062;BME280;26812;42.662;23.352;2023-03-05T10:58:21;94257.09;;;12.88;33.15
41062;BME280;26812;42.662;23.352;2023-03-05T11:01:04;94272.25;;;13.21;33.80
41062;BME280;26812;42.662;23.352;2023-03-05T11:06:45;94277.44;;;13.92;32.63
41062;BME280;26812;42.662;23.352;2023-03-05T11:11:42;94247.13;;;13.87;32.24
41062;BME280;26812;42.662;23.352;2023-03-05T11:14:23;94261.22;;;14.47;31.72
41062;BME280;26812;42.662;23.352;2023-03-05T11:16:54;94258.34;;;14.05;31.87
41062;BME280;26812;42.662;23.352;2023-03-05T11:19:24;94275.38;;;14.05;32.27
41062;BME280;26812;42.662;23.352;2023-03-05T11:22:16;94261.31;;;14.35;32.24
41062;BME280;26812;42.662;23.352;2023-03-05T11:24:44;94234.63;;;14.17;31.70
41062;BME280;26812;42.662;23.352;2023-03-05T11:27:27;94257.94;;;14.22;32.82
41062;BME280;26812;42.662;23.352;2023-03-05T11:29:55;94251.00;;;13.86;33.51
41062;BME280;26812;42.662;23.352;2023-03-05T11:32:23;94252.22;;;13.73;32.99
41062;BME280;26812;42.662;23.352;2023-03-05T11:34:50;94254.22;;;13.13;33.83
41062;BME280;26812;42.662;23.352;2023-03-05T11:37:30;94251.63;;;13.63;33.89
41062;BME280;26812;42.662;23.352;2023-03-05T11:40:21;94246.06;;;13.41;33.60
41062;BME280;26812;42.662;23.352;2023-03-05T11:42:58;94239.09;;;12.64;34.48
41062;BME280;26812;42.662;23.352;2023-03-05T11:45:25;94216.00;;;12.11;35.48
41062;BME280;26812;42.662;23.352;2023-03-05T11:47:55;94239.13;;;12.24;35.89
41062;BME280;26812;42.662;23.352;2023-03-05T11:50:30;94222.59;;;11.73;37.49
41062;BME280;26812;42.662;23.352;2023-03-05T11:53:10;94216.63;;;12.76;35.81
41062;BME280;26812;42.662;23.352;2023-03-05T11:55:43;94210.13;;;13.75;34.67
41062;BME280;26812;42.662;23.352;2023-03-05T12:00:53;94198.22;;;14.15;33.07
41062;BME280;26812;42.662;23.352;2023-03-05T12:03:29;94188.19;;;16.28;29.57
41062;BME280;26812;42.662;23.352;2023-03-05T12:06:01;94187.03;;;15.99;29.65
41062;BME280;26812;42.662;23.352;2023-03-05T12:08:33;94177.22;;;17.36;27.98
41062;BME280;26812;42.662;23.352;2023-03-05T12:11:06;94200.72;;;18.13;27.16
41062;BME280;26812;42.662;23.352;2023-03-05T12:13:39;94191.78;;;19.71;25.43
41062;BME280;26812;42.662;23.352;2023-03-05T12:16:30;94187.22;;;20.69;24.12
41062;BME280;26812;42.662;23.352;2023-03-05T12:21:49;94195.47;;;17.80;26.69
41062;BME280;26812;42.662;23.352;2023-03-05T12:29:30;94161.72;;;16.59;27.55
41062;BME280;26812;42.662;23.352;2023-03-05T12:32:03;94172.75;;;17.14;28.49
41062;BME280;26812;42.662;23.352;2023-03-05T12:58:33;94156.38;;;14.74;31.39
41062;BME280;26812;42.662;23.352;2023-03-05T13:03:57;94142.91;;;15.53;30.78
41062;BME280;26812;42.662;23.352;2023-03-05T13:06:32;94139.78;;;14.37;32.13
41062;BME280;26812;42.662;23.352;2023-03-05T13:09:06;94146.53;;;14.04;32.35
41062;BME280;26812;42.662;23.352;2023-03-05T13:11:35;94146.22;;;13.35;34.35
41062;BME280;26812;42.662;23.352;2023-03-05T13:14:02;94145.66;;;13.26;33.67
41062;BME280;26812;42.662;23.352;2023-03-05T13:16:34;94114.47;;;13.32;34.20
41062;BME280;26812;42.662;23.352;2023-03-05T13:19:01;94121.56;;;12.27;36.11
41062;BME280;26812;42.662;23.352;2023-03-05T13:21:29;94125.47;;;12.45;36.30
41062;BME280;26812;42.662;23.352;2023-03-05T13:24:01;94141.63;;;11.86;37.61
41062;BME280;26812;42.662;23.352;2023-03-05T13:26:31;94134.31;;;11.46;37.66
41062;BME280;26812;42.662;23.352;2023-03-05T13:31:35;94104.78;;;12.21;36.08
41062;BME280;26812;42.662;23.352;2023-03-05T13:36:44;94143.13;;;11.71;36.97
41062;BME280;26812;42.662;23.352;2023-03-05T13:39:17;94125.25;;;12.06;36.53
41062;BME280;26812;42.662;23.352;2023-03-05T13:41:55;94119.56;;;11.96;35.94
41062;BME280;26812;42.662;23.352;2023-03-05T13:44:21;94113.91;;;11.61;36.66
41062;BME280;26812;42.662;23.352;2023-03-05T13:46:46;94136.50;;;12.24;35.99
41062;BME280;26812;42.662;23.352;2023-03-05T13:49:30;94124.28;;;12.58;34.80
41062;BME280;26812;42.662;23.352;2023-03-05T13:51:57;94135.69;;;12.83;34.92
41062;BME280;26812;42.662;23.352;2023-03-05T13:54:27;94136.94;;;12.86;35.25
41062;BME280;26812;42.662;23.352;2023-03-05T13:57:05;94140.63;;;12.34;35.64
41062;BME280;26812;42.662;23.352;2023-03-05T13:59:35;94146.72;;;11.75;36.71
41062;BME280;26812;42.662;23.352;2023-03-05T14:02:15;94116.09;;;11.43;37.35
41062;BME280;26812;42.662;23.352;2023-03-05T14:04:42;94122.03;;;11.48;36.62
41062;BME280;26812;42.662;23.352;2023-03-05T14:07:38;94136.16;;;10.81;39.18
41062;BME280;26812;42.662;23.352;2023-03-05T14:12:53;94113.06;;;11.32;37.54
41062;BME280;26812;42.662;23.352;2023-03-05T14:15:25;94109.41;;;12.21;36.36
41062;BME280;26812;42.662;23.352;2023-03-05T14:17:51;94122.00;;;12.44;36.16
41062;BME280;26812;42.662;23.352;2023-03-05T14:20:20;94129.16;;;12.53;35.38
41062;BME280;26812;42.662;23.352;2023-03-05T14:22:52;94119.03;;;12.34;35.59
41062;BME280;26812;42.662;23.352;2023-03-05T14:27:51;94117.34;;;12.13;36.15
41062;BME280;26812;42.662;23.352;2023-03-05T14:30:19;94132.88;;;11.00;38.55